Time;durP1;ratioP1;P1;durP2;ratioP2;P2;SDS_P1;SDS_P2;PMS_P1;PMS_P2;Temp;Humidity;BMP_temperature;BMP_pressure;BME280_temperature;BME280_humidity;BME280_pressure;Samples;Min_cycle;Max_cycle;Signal;HPM_P1;HPM_P2
2023/11/17 16:38:23;;;;;;;0.10;0.10;;;;;;;;;;5086347;27;20605;-66
2023/11/17 16:40:50;;;;;;;0.10;0.10;;;;;;;;;;5047695;27;20579;-69
2023/11/17 16:43:17;;;;;;;0.10;0.10;;;;;;;;;;5047968;28;20213;-70
2023/11/17 16:45:45;;;;;;;0.10;0.10;;;;;;;;;;5028040;28;20306;-70
2023/11/17 16:48:12;;;;;;;0.10;0.10;;;;;;;;;;5036501;28;20243;-69
2023/11/17 16:50:39;;;;;;;0.10;0.10;;;;;;;;;;5028343;28;20279;-70
2023/11/17 16:53:08;;;;;;;0.10;0.10;;;;;;;;;;5036760;28;20212;-70
2023/11/17 16:55:36;;;;;;;0.20;0.20;;;;;;;;;;5027988;28;20256;-69
2023/11/17 16:58:03;;;;;;;0.30;0.30;;;;;;;;;;5036266;28;20234;-70
2023/11/17 17:00:32;;;;;;;0.10;0.10;;;;;;;;;;5028251;28;20206;-70
2023/11/17 17:02:59;;;;;;;0.10;0.10;;;;;;;;;;5036248;28;20201;-69
2023/11/17 17:05:25;;;;;;;0.10;0.10;;;;;;;;;;5028187;28;20396;-69
2023/11/17 17:07:54;;;;;;;0.20;0.20;;;;;;;;;;5036528;28;20272;-70
2023/11/17 17:10:21;;;;;;;0.10;0.10;;;;;;;;;;5028171;28;20205;-69
2023/11/17 17:12:52;;;;;;;0.20;0.20;;;;;;;;;;5036411;28;20456;-68
2023/11/17 17:15:18;;;;;;;0.10;0.10;;;;;;;;;;5028097;28;20239;-69
2023/11/17 17:17:46;;;;;;;0.17;0.17;;;;;;;;;;5036256;28;20303;-69
2023/11/17 17:20:14;;;;;;;0.20;0.20;;;;;;;;;;5028050;28;20271;-69
2023/11/17 17:22:44;;;;;;;0.20;0.20;;;;;;;;;;5036147;28;20209;-69
2023/11/17 17:25:10;;;;;;;0.10;0.10;;;;;;;;;;5027638;28;20220;-68
2023/11/17 17:27:37;;;;;;;0.10;0.10;;;;;;;;;;5036063;28;20397;-68
2023/11/17 17:30:06;;;;;;;0.10;0.10;;;;;;;;;;5036995;28;20212;-70
2023/11/17 17:32:32;;;;;;;0.20;0.20;;;;;;;;;;5027063;28;20317;-69
2023/11/17 17:35:00;;;;;;;0.10;0.10;;;;;;;;;;5036913;28;20475;-70
2023/11/17 17:37:26;;;;;;;0.10;0.10;;;;;;;;;;5026505;28;20240;-70
2023/11/17 17:39:53;;;;;;;0.17;0.17;;;;;;;;;;5036847;28;20227;-70
2023/11/17 17:42:20;;;;;;;0.10;0.10;;;;;;;;;;5026694;28;20243;-70
2023/11/17 17:44:49;;;;;;;0.10;0.10;;;;;;;;;;5036746;28;20205;-70
2023/11/17 17:47:17;;;;;;;0.20;0.20;;;;;;;;;;5026606;28;20300;-70
2023/11/17 17:49:43;;;;;;;0.10;0.10;;;;;;;;;;5023125;28;20209;-70
2023/11/17 17:52:12;;;;;;;0.20;0.20;;;;;;;;;;5013414;28;20301;-70
2023/11/17 17:54:39;;;;;;;0.17;0.17;;;;;;;;;;5023173;28;20223;-71
2023/11/17 17:57:05;;;;;;;0.10;0.10;;;;;;;;;;5013212;28;20260;-70
2023/11/17 17:59:32;;;;;;;0.13;0.13;;;;;;;;;;5023185;28;20209;-70
2023/11/17 18:01:58;;;;;;;0.10;0.10;;;;;;;;;;5013262;28;20295;-70
2023/11/17 18:04:27;;;;;;;0.10;0.10;;;;;;;;;;5023189;28;20402;-71
2023/11/17 18:06:53;;;;;;;0.10;0.10;;;;;;;;;;5013219;28;20247;-71
2023/11/17 18:09:21;;;;;;;0.10;0.10;;;;;;;;;;5022709;28;20265;-70
2023/11/17 18:11:48;;;;;;;0.10;0.10;;;;;;;;;;5013065;28;20260;-69
2023/11/17 18:14:15;;;;;;;0.10;0.10;;;;;;;;;;5022669;28;20208;-69
2023/11/17 18:16:42;;;;;;;0.20;0.20;;;;;;;;;;5013094;28;20241;-69
2023/11/17 18:19:08;;;;;;;0.10;0.10;;;;;;;;;;5022506;28;20209;-69
2023/11/17 18:21:36;;;;;;;0.10;0.10;;;;;;;;;;5013211;28;20314;-69
2023/11/17 18:24:02;;;;;;;0.20;0.20;;;;;;;;;;5022560;28;20206;-69
2023/11/17 18:26:29;;;;;;;0.20;0.20;;;;;;;;;;5012900;28;20307;-70
2023/11/17 18:28:55;;;;;;;0.10;0.10;;;;;;;;;;5022466;28;20215;-69
2023/11/17 18:31:22;;;;;;;0.20;0.20;;;;;;;;;;5013126;28;20445;-70
2023/11/17 18:33:49;;;;;;;0.20;0.20;;;;;;;;;;5022558;28;20562;-70
2023/11/17 18:36:16;;;;;;;0.10;0.10;;;;;;;;;;5012768;28;20242;-70
2023/11/17 18:38:44;;;;;;;0.17;0.17;;;;;;;;;;5022405;28;20462;-70
2023/11/17 18:41:10;;;;;;;0.10;0.10;;;;;;;;;;5012937;28;20253;-70
2023/11/17 18:43:38;;;;;;;0.20;0.20;;;;;;;;;;5022156;28;20241;-70
2023/11/17 18:46:06;;;;;;;0.17;0.17;;;;;;;;;;5012746;28;20252;-69
2023/11/17 18:48:33;;;;;;;0.13;0.13;;;;;;;;;;5022228;28;20213;-69
2023/11/17 18:51:00;;;;;;;0.23;0.23;;;;;;;;;;5012684;28;20268;-70
2023/11/17 18:53:29;;;;;;;0.10;0.10;;;;;;;;;;5022092;28;20557;-70
2023/11/17 18:55:57;;;;;;;0.20;0.20;;;;;;;;;;5012657;28;20245;-65
2023/11/17 18:58:24;;;;;;;0.13;0.13;;;;;;;;;;5021645;28;20233;-70
2023/11/17 19:00:50;;;;;;;0.17;0.17;;;;;;;;;;5011942;28;20283;-70
2023/11/17 19:03:16;;;;;;;0.20;0.20;;;;;;;;;;5021593;28;20200;-70
2023/11/17 19:05:43;;;;;;;0.20;0.20;;;;;;;;;;5013047;28;20461;-71
2023/11/17 19:08:09;;;;;;;0.17;0.17;;;;;;;;;;5021341;28;20452;-70
2023/11/17 19:10:35;;;;;;;0.10;0.10;;;;;;;;;;5012922;28;20269;-70
2023/11/17 19:13:03;;;;;;;0.10;0.10;;;;;;;;;;5021524;28;20274;-70
2023/11/17 19:15:30;;;;;;;0.20;0.20;;;;;;;;;;5012814;28;20282;-70
2023/11/17 19:17:56;;;;;;;0.20;0.20;;;;;;;;;;5021222;28;20233;-70
2023/11/17 19:20:23;;;;;;;0.20;0.20;;;;;;;;;;5012866;28;20473;-71
2023/11/17 19:22:49;;;;;;;0.20;0.20;;;;;;;;;;5021221;28;20207;-71
2023/11/17 19:25:16;;;;;;;0.10;0.10;;;;;;;;;;5012701;28;20233;-71
2023/11/17 19:27:43;;;;;;;0.10;0.10;;;;;;;;;;5021112;28;20268;-70
2023/11/17 19:30:14;;;;;;;0.10;0.10;;;;;;;;;;5018023;28;20393;-68
2023/11/17 19:32:42;;;;;;;0.20;0.20;;;;;;;;;;5021039;28;20221;-70
2023/11/17 19:35:09;;;;;;;1.13;1.13;;;;;;;;;;5019575;28;20391;-69
2023/11/17 19:37:36;;;;;;;0.17;0.17;;;;;;;;;;5020441;28;20252;-69
2023/11/17 19:40:06;;;;;;;0.10;0.10;;;;;;;;;;5021759;28;20549;-69
2023/11/17 19:42:33;;;;;;;0.10;0.10;;;;;;;;;;5011682;28;20563;-69
2023/11/17 19:44:59;;;;;;;0.10;0.10;;;;;;;;;;5021843;28;20235;-69
2023/11/17 19:47:27;;;;;;;0.10;0.10;;;;;;;;;;5011675;28;20249;-69
2023/11/17 19:49:53;;;;;;;0.20;0.20;;;;;;;;;;5021659;28;20533;-68
2023/11/17 19:52:20;;;;;;;0.10;0.10;;;;;;;;;;5011575;28;20604;-69
2023/11/17 19:54:46;;;;;;;0.10;0.10;;;;;;;;;;5021735;28;20228;-72
2023/11/17 19:57:12;;;;;;;0.20;0.20;;;;;;;;;;5011491;28;20241;-67
2023/11/17 19:59:39;;;;;;;0.20;0.20;;;;;;;;;;5021394;28;20205;-69
2023/11/17 20:02:06;;;;;;;0.10;0.10;;;;;;;;;;5011233;28;20579;-69
2023/11/17 20:04:34;;;;;;;0.10;0.10;;;;;;;;;;5021433;28;20198;-69
2023/11/17 20:07:00;;;;;;;0.10;0.10;;;;;;;;;;5011339;28;20490;-70
2023/11/17 20:09:39;;;;;;;0.10;0.10;;;;;;;;;;5021402;28;20209;-69
2023/11/17 20:12:06;;;;;;;0.20;0.20;;;;;;;;;;5010882;28;20293;-68
2023/11/17 20:14:33;;;;;;;0.20;0.20;;;;;;;;;;5021471;28;20212;-68
2023/11/17 20:16:59;;;;;;;0.10;0.10;;;;;;;;;;5010995;28;20245;-69
2023/11/17 20:19:26;;;;;;;0.10;0.10;;;;;;;;;;5021323;28;20232;-69
2023/11/17 20:21:53;;;;;;;0.10;0.10;;;;;;;;;;5011011;28;20248;-69
2023/11/17 20:24:20;;;;;;;0.10;0.10;;;;;;;;;;5021037;28;20212;-70
2023/11/17 20:26:49;;;;;;;0.10;0.10;;;;;;;;;;5011015;28;20241;-69
2023/11/17 20:29:16;;;;;;;0.13;0.13;;;;;;;;;;5021107;28;20201;-69
2023/11/17 20:31:43;;;;;;;0.20;0.20;;;;;;;;;;5011015;28;20241;-69
2023/11/17 20:34:11;;;;;;;0.10;0.10;;;;;;;;;;5020710;28;20206;-69
2023/11/17 20:36:37;;;;;;;0.13;0.13;;;;;;;;;;5010862;28;20244;-69
2023/11/17 20:39:14;;;;;;;0.20;0.20;;;;;;;;;;5020696;28;20533;-69
2023/11/17 20:41:40;;;;;;;0.20;0.20;;;;;;;;;;5011094;28;20248;-69
2023/11/17 20:44:08;;;;;;;0.10;0.10;;;;;;;;;;5020517;28;20347;-69
2023/11/17 20:46:36;;;;;;;0.10;0.10;;;;;;;;;;5010858;28;20251;-70
2023/11/17 20:49:03;;;;;;;0.10;0.10;;;;;;;;;;5020743;28;20421;-70
2023/11/17 20:51:30;;;;;;;0.20;0.20;;;;;;;;;;5011074;28;20252;-68
2023/11/17 20:53:57;;;;;;;0.10;0.10;;;;;;;;;;5020362;28;20212;-69
2023/11/17 20:56:25;;;;;;;0.10;0.10;;;;;;;;;;5011128;28;20279;-68
2023/11/17 20:58:53;;;;;;;0.10;0.10;;;;;;;;;;5020222;28;20292;-68
2023/11/17 21:01:20;;;;;;;0.10;0.10;;;;;;;;;;5011024;28;20245;-68
2023/11/17 21:03:47;;;;;;;0.20;0.20;;;;;;;;;;5020393;28;20208;-68
2023/11/17 21:06:17;;;;;;;0.10;0.10;;;;;;;;;;5010898;28;20241;-68
2023/11/17 21:08:43;;;;;;;0.20;0.20;;;;;;;;;;5020045;28;20201;-68
2023/11/17 21:11:10;;;;;;;0.10;0.10;;;;;;;;;;5010923;28;20515;-68
2023/11/17 21:13:39;;;;;;;0.10;0.10;;;;;;;;;;5019998;28;20206;-68
2023/11/17 21:16:07;;;;;;;0.10;0.10;;;;;;;;;;5010826;28;20477;-68
2023/11/17 21:18:33;;;;;;;0.10;0.10;;;;;;;;;;5020134;28;20544;-67
2023/11/17 21:21:00;;;;;;;0.13;0.13;;;;;;;;;;5010850;28;20315;-67
2023/11/17 21:23:28;;;;;;;0.10;0.10;;;;;;;;;;5020962;28;20231;-68
2023/11/17 21:25:54;;;;;;;0.10;0.10;;;;;;;;;;5014230;28;20448;-68
2023/11/17 21:28:24;;;;;;;0.10;0.10;;;;;;;;;;5023352;28;20201;-68
2023/11/17 21:30:52;;;;;;;0.10;0.10;;;;;;;;;;5014385;28;20329;-68
2023/11/17 21:33:18;;;;;;;0.10;0.10;;;;;;;;;;5022999;28;20265;-68
2023/11/17 21:35:45;;;;;;;0.10;0.10;;;;;;;;;;5014095;28;20266;-67
2023/11/17 21:38:11;;;;;;;0.13;0.13;;;;;;;;;;5022517;28;20436;-68
2023/11/17 21:40:37;;;;;;;0.10;0.10;;;;;;;;;;5014378;28;20315;-67
2023/11/17 21:43:04;;;;;;;0.10;0.10;;;;;;;;;;5022927;28;20529;-67
2023/11/17 21:45:34;;;;;;;0.10;0.10;;;;;;;;;;5014320;28;20591;-68
2023/11/17 21:48:03;;;;;;;0.10;0.10;;;;;;;;;;5022738;28;20202;-68
2023/11/17 21:50:31;;;;;;;0.10;0.10;;;;;;;;;;5014100;28;20239;-68
2023/11/17 21:52:58;;;;;;;0.10;0.10;;;;;;;;;;5022590;28;20219;-68
2023/11/17 21:55:24;;;;;;;0.20;0.20;;;;;;;;;;5014024;28;20214;-67
2023/11/17 21:57:51;;;;;;;0.10;0.10;;;;;;;;;;5022401;28;20227;-68
2023/11/17 22:00:18;;;;;;;0.10;0.10;;;;;;;;;;5014202;28;20237;-67
2023/11/17 22:02:45;;;;;;;0.20;0.20;;;;;;;;;;5022359;28;20214;-68
2023/11/17 22:05:14;;;;;;;0.10;0.10;;;;;;;;;;5014013;28;20246;-68
2023/11/17 22:07:40;;;;;;;0.10;0.10;;;;;;;;;;5022124;28;20276;-68
2023/11/17 22:10:08;;;;;;;0.17;0.17;;;;;;;;;;5022953;28;20213;-67
2023/11/17 22:12:35;;;;;;;0.10;0.10;;;;;;;;;;5011947;28;20233;-68
2023/11/17 22:15:06;;;;;;;0.10;0.10;;;;;;;;;;5022919;28;20237;-68
2023/11/17 22:17:33;;;;;;;0.10;0.10;;;;;;;;;;5012980;28;20272;-68
2023/11/17 22:20:00;;;;;;;0.10;0.10;;;;;;;;;;5023076;28;20225;-68
2023/11/17 22:22:29;;;;;;;0.10;0.10;;;;;;;;;;5012739;28;20245;-68
2023/11/17 22:24:55;;;;;;;0.20;0.20;;;;;;;;;;5022804;28;20248;-68
2023/11/17 22:27:21;;;;;;;0.20;0.20;;;;;;;;;;5012663;28;20300;-68
2023/11/17 22:29:48;;;;;;;0.10;0.10;;;;;;;;;;5022753;28;20247;-68
2023/11/17 22:32:14;;;;;;;0.13;0.13;;;;;;;;;;5012714;28;20264;-68
2023/11/17 22:34:40;;;;;;;0.13;0.13;;;;;;;;;;5022594;28;20281;-68
2023/11/17 22:37:07;;;;;;;0.13;0.13;;;;;;;;;;5012319;28;20248;-68
2023/11/17 22:39:34;;;;;;;0.10;0.10;;;;;;;;;;5022419;28;20239;-68
2023/11/17 22:42:01;;;;;;;0.10;0.10;;;;;;;;;;5012560;28;20448;-68
2023/11/17 22:44:29;;;;;;;0.13;0.13;;;;;;;;;;5022736;28;20253;-68
2023/11/17 22:46:55;;;;;;;0.17;0.17;;;;;;;;;;5012552;28;20332;-68
2023/11/17 22:49:22;;;;;;;0.20;0.20;;;;;;;;;;5022628;28;20524;-68
2023/11/17 22:51:49;;;;;;;0.10;0.10;;;;;;;;;;5012426;28;20323;-68
2023/11/17 22:54:16;;;;;;;0.13;0.13;;;;;;;;;;5022223;28;20211;-68
2023/11/17 22:56:44;;;;;;;0.10;0.10;;;;;;;;;;5012539;28;20241;-68
2023/11/17 22:59:10;;;;;;;0.20;0.20;;;;;;;;;;5022296;28;20252;-68
2023/11/17 23:01:37;;;;;;;0.10;0.10;;;;;;;;;;5012588;28;20316;-67
2023/11/17 23:04:06;;;;;;;0.10;0.10;;;;;;;;;;5021898;28;20208;-67
2023/11/17 23:06:33;;;;;;;0.10;0.10;;;;;;;;;;5012453;28;20241;-67
2023/11/17 23:09:01;;;;;;;0.20;0.20;;;;;;;;;;5021891;28;20215;-68
2023/11/17 23:11:27;;;;;;;0.10;0.10;;;;;;;;;;5012234;28;20244;-68
2023/11/17 23:13:55;;;;;;;0.10;0.10;;;;;;;;;;5022057;28;20389;-68
2023/11/17 23:16:22;;;;;;;0.10;0.10;;;;;;;;;;5012344;28;20243;-68
2023/11/17 23:18:48;;;;;;;0.10;0.10;;;;;;;;;;5021444;28;20226;-68
2023/11/17 23:21:15;;;;;;;0.10;0.10;;;;;;;;;;5012349;28;20241;-68
2023/11/17 23:23:46;;;;;;;0.10;0.10;;;;;;;;;;5021412;28;20208;-68
2023/11/17 23:26:15;;;;;;;0.10;0.10;;;;;;;;;;5012424;28;20248;-68
2023/11/17 23:28:41;;;;;;;0.10;0.10;;;;;;;;;;5021686;28;20272;-68
2023/11/17 23:31:09;;;;;;;0.10;0.10;;;;;;;;;;5012246;28;20323;-68
2023/11/17 23:33:35;;;;;;;0.10;0.10;;;;;;;;;;5021568;28;20281;-68
2023/11/17 23:36:02;;;;;;;0.10;0.10;;;;;;;;;;5012221;28;20325;-68
2023/11/17 23:38:29;;;;;;;0.13;0.13;;;;;;;;;;5021270;28;20337;-68
2023/11/17 23:40:55;;;;;;;0.13;0.13;;;;;;;;;;5012237;28;20452;-68
2023/11/17 23:43:21;;;;;;;0.10;0.10;;;;;;;;;;5021284;28;20402;-68
2023/11/17 23:45:48;;;;;;;0.10;0.10;;;;;;;;;;5011770;28;20558;-68
2023/11/17 23:48:16;;;;;;;0.20;0.20;;;;;;;;;;5021038;28;20561;-68
2023/11/17 23:50:42;;;;;;;0.20;0.20;;;;;;;;;;5012207;28;20251;-68
2023/11/17 23:53:08;;;;;;;0.10;0.10;;;;;;;;;;5020850;28;20231;-68
2023/11/17 23:55:35;;;;;;;0.10;0.10;;;;;;;;;;5012485;28;20516;-68
2023/11/17 23:58:01;;;;;;;0.13;0.13;;;;;;;;;;5020691;28;20531;-68
